BIENTÔT MET'MAP
version 2.0 !

Prévue avant fin octobre,
la nouvelle version sera
plus belle, plus complète
et hébergée sur un serveur
3 fois plus puissant...
et toujours gratuite !


Pas compatible ?
Essayez la version Mobile !

SE CONNECTER : | S'inscrire | Disclaimer | Découvrir Orbifly |
Code OACI :
Lgende : VFR VFR Marginal IFR IFR Intensif IFR Trs Intensif
Visi :
Plafond :
>= 8 km
>= 3000ft
5 8 km
1000 3000 ft
1500m 5 km
500 1000 ft
800 1500m
200 500 ft
< 800m
< 200 ft

METAR - EBAW Anvers / Antwerpen Deurne - 27 Jan 2020 23:55 UTC
Data Sources :     NOAA   


- Altitude de l'aérodrome : 39 ft
- Code IATA : ANR
- Pas de NOTAMs connus.


EBAW - Anvers / Antwerpen Deurne

Dernier METAR connu : 2015/08/11 07:50 EBAW 110750Z 26004KT 240V300 8000 BKN013 19/16 Q1019 BECMG SCT016
TAF TAF EBAW
Valide du 27 à 21h jusqu'au 28 à 06h UTC


272000Z 2721/2806 19012KT 9999 SCT012 BKN020
TEMPO 2721/2806 22015G25KT
PROB30
TEMPO 2800/2803 4500 SHRA SCT008 BKN012TCU
TEMPO 2805/2806 3500 SHRA SHRASN BKN007 SCT014CB

Source NOAA


MET'MAP, la Météo Aéronautique d'un coup d'oeil ! - Copyright ORBIFLY Décembre 2007

Développement & Programmation : Alexandra Zaïnal
Co-Développement : Marc-Olivier Méhu
Soutien technique & logistique : Manuel Goepfert
Conception & Financement : Baudouin d'Aumeries